createdAt,value
2023-05-14T00:01:52.000Z,6.75
2023-05-14T00:04:19.699Z,6.85
2023-05-14T00:06:46.512Z,7.10
2023-05-14T00:09:13.232Z,7.30
2023-05-14T00:11:39.779Z,6.78
2023-05-14T00:14:06.246Z,7.22
2023-05-14T00:16:35.475Z,7.43
2023-05-14T00:19:02.013Z,7.28
2023-05-14T00:21:28.531Z,6.63
2023-05-14T00:23:55.075Z,7.18
2023-05-14T00:26:21.698Z,6.85
2023-05-14T00:28:49.120Z,6.57
2023-05-14T00:31:15.958Z,6.63
2023-05-14T00:33:54.243Z,7.28
2023-05-14T00:36:21.873Z,6.90
2023-05-14T00:38:49.076Z,7.13
2023-05-14T00:41:15.786Z,6.75
2023-05-14T00:43:42.278Z,6.60
2023-05-14T00:46:09.138Z,6.47
2023-05-14T00:48:35.974Z,6.70
2023-05-14T00:51:02.605Z,6.97
2023-05-14T00:53:29.326Z,6.72
2023-05-14T00:55:56.024Z,6.30
2023-05-14T00:58:27.131Z,6.38
2023-05-14T01:00:53.734Z,6.32
2023-05-14T01:03:23.642Z,6.57
2023-05-14T01:06:01.116Z,6.40
2023-05-14T01:08:40.953Z,6.40
2023-05-14T01:11:16.698Z,6.80
2023-05-14T01:14:03.347Z,6.28
2023-05-14T01:16:33.309Z,6.10
2023-05-14T01:19:04.714Z,6.32
2023-05-14T01:21:35.456Z,6.40
2023-05-14T01:24:02.163Z,6.07
2023-05-14T01:26:31.316Z,5.68
2023-05-14T01:29:15.213Z,5.90
2023-05-14T01:31:45.977Z,6.20
2023-05-14T01:34:14.637Z,6.00
2023-05-14T01:36:42.851Z,5.60
2023-05-14T01:39:11.578Z,5.70
2023-05-14T01:41:39.416Z,5.50
2023-05-14T01:44:09.448Z,5.88
2023-05-14T01:46:36.315Z,6.03
2023-05-14T01:49:03.188Z,5.80
2023-05-14T01:51:29.847Z,5.90
2023-05-14T01:53:56.339Z,5.85
2023-05-14T01:56:23.822Z,5.90
2023-05-14T01:58:50.334Z,5.45
2023-05-14T02:01:20.168Z,5.70
2023-05-14T02:03:46.667Z,5.85
2023-05-14T02:06:13.182Z,6.05
2023-05-14T02:08:39.669Z,5.75
2023-05-14T02:11:06.208Z,5.80
2023-05-14T02:13:32.664Z,5.60
2023-05-14T02:15:59.165Z,5.63
2023-05-14T02:18:28.259Z,5.68
2023-05-14T02:21:00.916Z,5.47
2023-05-14T02:23:40.327Z,6.00
2023-05-14T02:26:09.618Z,5.93
2023-05-14T02:28:40.236Z,5.70
2023-05-14T02:31:06.920Z,5.88
2023-05-14T02:33:33.439Z,5.75
2023-05-14T02:36:00.147Z,5.72
2023-05-14T02:38:26.763Z,5.55
2023-05-14T02:40:53.923Z,5.78
2023-05-14T02:43:20.425Z,5.57
2023-05-14T02:45:47.263Z,5.90
2023-05-14T02:48:13.803Z,6.05
2023-05-14T02:50:40.300Z,5.88
2023-05-14T02:53:06.809Z,6.00
2023-05-14T02:55:33.355Z,6.18
2023-05-14T02:57:59.804Z,5.80
2023-05-14T03:00:26.330Z,5.53
2023-05-14T03:02:53.449Z,6.20
2023-05-14T03:05:20.680Z,5.78
2023-05-14T03:07:47.133Z,5.55
2023-05-14T03:10:13.588Z,6.10
2023-05-14T03:12:40.120Z,5.68
2023-05-14T03:15:07.304Z,5.70
2023-05-14T03:17:33.839Z,5.85
2023-05-14T03:20:00.670Z,6.03
2023-05-14T03:22:27.353Z,5.70
2023-05-14T03:24:53.783Z,5.60
2023-05-14T03:27:20.789Z,5.95
2023-05-14T03:29:47.284Z,6.03
2023-05-14T03:32:13.863Z,6.32
2023-05-14T03:34:40.591Z,5.60
2023-05-14T03:37:07.156Z,5.93
2023-05-14T03:39:33.706Z,6.32
2023-05-14T03:42:00.272Z,5.80
2023-05-14T03:44:26.866Z,6.07
2023-05-14T03:46:53.384Z,5.68
2023-05-14T03:49:19.832Z,6.15
2023-05-14T03:51:46.309Z,5.80
2023-05-14T03:54:12.830Z,5.63
2023-05-14T03:56:39.308Z,5.60
2023-05-14T03:59:05.815Z,5.43
2023-05-14T04:01:32.423Z,5.95
2023-05-14T04:03:58.954Z,6.13
2023-05-14T04:06:27.062Z,5.35
2023-05-14T04:08:53.763Z,5.90
2023-05-14T04:11:21.384Z,5.80
2023-05-14T04:13:47.916Z,5.60
2023-05-14T04:16:14.396Z,5.75
2023-05-14T04:18:43.762Z,5.47
2023-05-14T04:21:10.239Z,5.80
2023-05-14T04:23:36.742Z,5.97
2023-05-14T04:26:03.596Z,6.28
2023-05-14T04:28:30.460Z,6.00
2023-05-14T04:30:56.986Z,6.03
2023-05-14T04:33:23.510Z,6.00
2023-05-14T04:35:49.955Z,5.95
2023-05-14T04:38:16.511Z,6.65
2023-05-14T04:40:43.022Z,6.03
2023-05-14T04:43:09.774Z,6.63
2023-05-14T04:45:36.517Z,6.90
2023-05-14T04:48:04.888Z,6.60
2023-05-14T04:50:31.454Z,6.85
2023-05-14T04:52:57.969Z,6.22
2023-05-14T04:55:24.442Z,6.22
2023-05-14T04:57:51.216Z,7.10
2023-05-14T05:00:18.173Z,7.13
2023-05-14T05:02:44.853Z,7.55
2023-05-14T05:05:11.570Z,7.57
2023-05-14T05:07:38.074Z,7.25
2023-05-14T05:10:04.899Z,7.75
2023-05-14T05:12:31.451Z,7.55
2023-05-14T05:14:58.111Z,8.02
2023-05-14T05:17:25.183Z,7.53
2023-05-14T05:19:52.537Z,8.20
2023-05-14T05:22:20.193Z,7.60
2023-05-14T05:24:48.036Z,7.80
2023-05-14T05:27:15.709Z,7.68
2023-05-14T05:29:46.139Z,8.27
2023-05-14T05:32:12.624Z,7.80
2023-05-14T05:34:39.161Z,7.97
2023-05-14T05:37:06.051Z,8.02
2023-05-14T05:39:35.131Z,8.05
2023-05-14T05:42:02.718Z,7.35
2023-05-14T05:44:29.290Z,7.43
2023-05-14T05:46:57.294Z,7.75
2023-05-14T05:49:24.218Z,7.32
2023-05-14T05:51:50.798Z,7.25
2023-05-14T05:54:18.509Z,7.18
2023-05-14T05:56:44.996Z,7.22
2023-05-14T05:59:11.508Z,6.97
2023-05-14T06:01:38.632Z,7.50
2023-05-14T06:04:06.385Z,7.22
2023-05-14T06:06:33.049Z,7.70
2023-05-14T06:08:59.602Z,7.47
2023-05-14T06:11:26.623Z,8.30
2023-05-14T06:13:53.241Z,8.15
2023-05-14T06:16:19.783Z,7.78
2023-05-14T06:18:49.630Z,8.23
2023-05-14T06:21:16.118Z,7.97
2023-05-14T06:23:42.598Z,8.27
2023-05-14T06:26:09.020Z,8.90
2023-05-14T06:28:35.534Z,8.65
2023-05-14T06:31:02.013Z,7.88
2023-05-14T06:33:31.393Z,8.50
2023-05-14T06:36:03.612Z,8.10
2023-05-14T06:38:30.237Z,8.15
2023-05-14T06:40:56.728Z,8.00
2023-05-14T06:43:23.206Z,7.82
2023-05-14T06:45:53.147Z,7.80
2023-05-14T06:48:20.242Z,8.57
2023-05-14T06:50:48.427Z,7.85
2023-05-14T06:53:15.353Z,7.28
2023-05-14T06:55:41.945Z,7.93
2023-05-14T06:58:09.082Z,9.30
2023-05-14T07:00:36.590Z,8.88
2023-05-14T07:03:03.115Z,8.85
2023-05-14T07:05:29.724Z,8.77
2023-05-14T07:07:56.400Z,9.55
2023-05-14T07:10:23.688Z,9.20
2023-05-14T07:12:50.488Z,9.25
2023-05-14T07:15:17.086Z,9.65
2023-05-14T07:17:43.582Z,10.18
2023-05-14T07:20:10.753Z,10.13
2023-05-14T07:22:37.201Z,10.18
2023-05-14T07:25:03.839Z,9.95
2023-05-14T07:27:30.276Z,9.45
2023-05-14T07:29:56.789Z,9.38
2023-05-14T07:32:25.068Z,10.70
2023-05-14T07:34:51.762Z,9.48
2023-05-14T07:37:18.832Z,10.15
2023-05-14T07:39:45.633Z,10.43
2023-05-14T07:42:21.890Z,9.93
2023-05-14T07:44:54.705Z,10.63
2023-05-14T07:47:21.186Z,10.38
2023-05-14T07:49:47.658Z,10.52
2023-05-14T07:52:14.127Z,9.80
2023-05-14T07:54:40.722Z,10.52
2023-05-14T07:57:07.543Z,10.52
2023-05-14T07:59:33.992Z,11.18
2023-05-14T08:02:03.859Z,11.07
2023-05-14T08:04:30.869Z,10.10
2023-05-14T08:06:58.202Z,10.63
2023-05-14T08:09:24.658Z,10.27
2023-05-14T08:11:51.123Z,9.73
2023-05-14T08:14:17.636Z,9.60
2023-05-14T08:16:44.242Z,10.23
2023-05-14T08:19:12.404Z,10.07
2023-05-14T08:21:39.053Z,10.13
2023-05-14T08:24:05.723Z,9.05
2023-05-14T08:26:32.420Z,9.00
2023-05-14T08:28:58.871Z,9.05
2023-05-14T08:31:25.497Z,8.00
2023-05-14T08:33:51.992Z,7.22
2023-05-14T08:36:18.544Z,6.82
2023-05-14T08:38:45.422Z,6.07
2023-05-14T08:41:15.301Z,5.22
2023-05-14T08:43:50.871Z,5.20
2023-05-14T08:46:18.078Z,4.85
2023-05-14T08:48:51.740Z,5.03
2023-05-14T08:51:19.157Z,5.20
2023-05-14T08:53:45.620Z,4.90
2023-05-14T08:56:13.298Z,4.88
2023-05-14T08:58:39.930Z,5.13
2023-05-14T09:01:06.653Z,5.60
2023-05-14T09:03:33.898Z,5.15
2023-05-14T09:06:03.456Z,5.43
2023-05-14T09:08:30.042Z,5.25
2023-05-14T09:10:56.510Z,5.80
2023-05-14T09:13:23.042Z,5.78
2023-05-14T09:15:51.186Z,5.90
2023-05-14T09:18:17.855Z,6.22
2023-05-14T09:20:44.472Z,6.18
2023-05-14T09:23:10.962Z,6.32
2023-05-14T09:25:37.452Z,6.45
2023-05-14T09:28:09.210Z,6.65
2023-05-14T09:33:04.288Z,6.70
2023-05-14T09:35:32.403Z,6.93
2023-05-14T09:37:58.979Z,6.25
2023-05-14T09:40:25.680Z,5.47
2023-05-14T09:42:52.324Z,6.20
2023-05-14T09:45:19.265Z,6.13
2023-05-14T09:47:46.083Z,5.47
2023-05-14T09:50:12.800Z,6.10
2023-05-14T09:52:39.569Z,6.25
2023-05-14T09:55:07.025Z,7.82
2023-05-14T09:57:34.472Z,7.85
2023-05-14T10:00:01.105Z,7.35
2023-05-14T10:02:37.355Z,8.80
2023-05-14T10:05:08.034Z,9.15
2023-05-14T10:07:42.460Z,8.70
2023-05-14T10:10:13.629Z,9.07
2023-05-14T10:12:40.710Z,8.80
2023-05-14T10:15:15.559Z,7.63
2023-05-14T10:17:46.663Z,8.30
2023-05-14T10:20:16.714Z,8.73
2023-05-14T10:22:43.264Z,7.70
2023-05-14T10:25:11.094Z,7.93
2023-05-14T10:27:37.975Z,8.18
2023-05-14T10:30:10.320Z,7.85
2023-05-14T10:32:37.963Z,7.65
2023-05-14T10:35:17.334Z,7.63
2023-05-14T10:37:45.944Z,6.95
2023-05-14T10:40:13.704Z,8.13
2023-05-14T10:42:40.922Z,7.72
2023-05-14T10:45:09.257Z,7.38
2023-05-14T10:47:40.410Z,6.97
2023-05-14T10:50:09.047Z,6.82
2023-05-14T10:52:36.148Z,6.80
2023-05-14T10:55:08.553Z,6.35
2023-05-14T10:57:38.587Z,6.80
2023-05-14T11:00:10.685Z,6.97
2023-05-14T11:02:43.147Z,6.85
2023-05-14T11:05:17.531Z,6.45
2023-05-14T11:07:49.303Z,6.72
2023-05-14T11:10:20.533Z,7.03
2023-05-14T11:12:48.825Z,6.88
2023-05-14T11:15:20.679Z,6.07
2023-05-14T11:20:16.667Z,6.20
2023-05-14T11:22:44.559Z,5.90
2023-05-14T11:25:14.518Z,5.40
2023-05-14T11:27:43.855Z,5.90
2023-05-14T11:30:19.038Z,5.70
2023-05-14T11:32:47.025Z,6.10
2023-05-14T11:35:14.616Z,5.25
2023-05-14T11:37:41.783Z,5.70
2023-05-14T11:40:18.815Z,5.43
2023-05-14T11:42:45.714Z,5.90
2023-05-14T11:45:13.717Z,4.75
2023-05-14T11:47:41.843Z,4.05
2023-05-14T11:50:09.652Z,3.85
2023-05-14T11:52:41.179Z,4.10
2023-05-14T11:55:12.782Z,3.78
2023-05-14T11:57:39.595Z,4.20
2023-05-14T12:00:14.403Z,4.22
2023-05-14T12:02:41.127Z,4.68
2023-05-14T12:05:09.056Z,4.50
2023-05-14T12:07:36.141Z,4.47
2023-05-14T12:10:03.644Z,4.78
2023-05-14T12:12:36.045Z,4.60
2023-05-14T12:15:02.716Z,4.90
2023-05-14T12:17:29.209Z,5.18
2023-05-14T12:19:57.268Z,4.65
2023-05-14T12:22:23.891Z,4.80
2023-05-14T12:24:58.082Z,5.35
2023-05-14T12:27:29.544Z,5.30
2023-05-14T12:30:09.123Z,4.75
2023-05-14T12:32:42.718Z,4.40
2023-05-14T12:35:09.713Z,5.35
2023-05-14T12:37:37.349Z,4.60
2023-05-14T12:40:09.038Z,4.68
2023-05-14T12:45:05.498Z,4.78
2023-05-14T12:47:32.352Z,4.40
2023-05-14T12:49:58.943Z,4.90
2023-05-14T12:52:36.667Z,5.15
2023-05-14T12:55:05.434Z,4.53
2023-05-14T12:57:32.235Z,4.20
2023-05-14T12:59:58.976Z,4.43
2023-05-14T13:02:25.551Z,4.15
2023-05-14T13:04:52.083Z,3.85
2023-05-14T13:07:18.620Z,3.85
2023-05-14T13:09:45.175Z,3.72
2023-05-14T13:12:11.642Z,3.65
2023-05-14T13:14:38.114Z,3.47
2023-05-14T13:17:05.123Z,3.35
2023-05-14T13:19:31.766Z,3.90
2023-05-14T13:21:58.212Z,3.67
2023-05-14T13:24:25.111Z,3.85
2023-05-14T13:26:51.602Z,3.83
2023-05-14T13:29:18.063Z,4.25
2023-05-14T13:31:44.572Z,3.97
2023-05-14T13:34:11.045Z,4.18
2023-05-14T13:36:39.724Z,4.22
2023-05-14T13:39:07.258Z,4.45
2023-05-14T13:41:35.720Z,4.10
2023-05-14T13:44:02.164Z,3.92
2023-05-14T13:46:28.968Z,4.05
2023-05-14T13:48:55.486Z,4.63
2023-05-14T13:51:25.205Z,4.20
2023-05-14T13:53:51.725Z,4.18
2023-05-14T13:56:18.694Z,4.38
2023-05-14T13:58:45.257Z,3.85
2023-05-14T14:01:11.778Z,4.38
2023-05-14T14:03:41.003Z,4.00
2023-05-14T14:06:07.514Z,4.03
2023-05-14T14:08:33.985Z,4.38
2023-05-14T14:11:00.575Z,3.72
2023-05-14T14:13:27.782Z,4.07
2023-05-14T14:15:54.360Z,4.20
2023-05-14T14:18:20.931Z,4.10
2023-05-14T14:20:47.671Z,4.57
2023-05-14T14:23:14.196Z,3.65
2023-05-14T14:25:40.726Z,4.45
2023-05-14T14:28:07.210Z,4.22
2023-05-14T14:30:34.596Z,4.50
2023-05-14T14:33:01.561Z,4.47
2023-05-14T14:35:28.275Z,4.43
2023-05-14T14:37:55.708Z,4.30
2023-05-14T14:40:23.788Z,3.83
2023-05-14T14:42:51.144Z,4.00
2023-05-14T14:45:18.146Z,4.03
2023-05-14T14:47:46.331Z,4.03
2023-05-14T14:50:13.409Z,3.97
2023-05-14T14:52:40.942Z,3.58
2023-05-14T14:55:07.741Z,4.00
2023-05-14T14:57:34.234Z,3.35
2023-05-14T15:00:02.332Z,2.95
2023-05-14T15:02:29.451Z,3.38
2023-05-14T15:04:55.968Z,3.10
2023-05-14T15:07:22.706Z,3.63
2023-05-14T15:09:49.140Z,3.33
2023-05-14T15:12:17.037Z,3.20
2023-05-14T15:14:43.753Z,3.28
2023-05-14T15:17:10.412Z,3.70
2023-05-14T15:19:37.103Z,3.33
2023-05-14T15:22:04.205Z,3.47
2023-05-14T15:24:30.855Z,3.22
2023-05-14T15:26:57.369Z,3.30
2023-05-14T15:29:23.824Z,3.30
2023-05-14T15:31:50.410Z,3.40
2023-05-14T15:34:17.017Z,3.15
2023-05-14T15:36:43.555Z,2.97
2023-05-14T15:39:12.898Z,3.00
2023-05-14T15:41:39.524Z,3.20
2023-05-14T15:44:06.254Z,3.50
2023-05-14T15:46:32.877Z,3.33
2023-05-14T15:48:59.515Z,3.63
2023-05-14T15:51:26.124Z,3.33
2023-05-14T15:53:54.274Z,3.38
2023-05-14T15:56:22.411Z,3.20
2023-05-14T15:58:50.543Z,3.38
2023-05-14T16:01:18.691Z,3.42
2023-05-14T16:03:45.645Z,3.70
2023-05-14T16:06:12.268Z,3.40
2023-05-14T16:08:38.831Z,3.78
2023-05-14T16:11:07.487Z,3.72
2023-05-14T16:13:34.045Z,3.42
2023-05-14T16:16:01.259Z,3.78
2023-05-14T16:18:27.889Z,3.75
2023-05-14T16:20:54.351Z,3.75
2023-05-14T16:23:20.994Z,3.75
2023-05-14T16:25:47.889Z,4.03
2023-05-14T16:28:14.444Z,3.38
2023-05-14T16:30:40.940Z,3.50
2023-05-14T16:33:07.472Z,3.90
2023-05-14T16:35:34.062Z,3.33
2023-05-14T16:38:00.617Z,3.42
2023-05-14T16:40:27.139Z,3.70
2023-05-14T16:42:53.646Z,3.70
2023-05-14T16:45:20.159Z,3.60
2023-05-14T16:47:47.842Z,3.58
2023-05-14T16:50:14.405Z,3.38
2023-05-14T16:52:40.925Z,3.67
2023-05-14T16:55:07.824Z,3.45
2023-05-14T16:57:34.696Z,3.33
2023-05-14T17:00:03.493Z,3.40
2023-05-14T17:02:29.986Z,3.53
2023-05-14T17:04:56.652Z,3.50
2023-05-14T17:07:23.147Z,3.47
2023-05-14T17:09:49.660Z,3.30
2023-05-14T17:12:16.161Z,3.65
2023-05-14T17:14:42.622Z,3.40
2023-05-14T17:17:09.140Z,3.65
2023-05-14T17:19:39.205Z,3.45
2023-05-14T17:22:05.904Z,3.20
2023-05-14T17:24:32.463Z,3.60
2023-05-14T17:26:58.939Z,3.80
2023-05-14T17:29:25.703Z,3.75
2023-05-14T17:31:52.395Z,3.80
2023-05-14T17:34:18.982Z,4.22
2023-05-14T17:36:45.870Z,3.90
2023-05-14T17:39:12.331Z,3.72
2023-05-14T17:41:39.073Z,4.20
2023-05-14T17:44:09.800Z,3.72
2023-05-14T17:46:37.347Z,4.00
2023-05-14T17:49:03.843Z,4.50
2023-05-14T17:51:31.108Z,4.10
2023-05-14T17:53:57.588Z,4.30
2023-05-14T17:56:24.216Z,4.10
2023-05-14T17:58:50.726Z,4.07
2023-05-14T18:01:17.244Z,4.20
2023-05-14T18:03:43.850Z,4.03
2023-05-14T18:06:13.234Z,4.20
2023-05-14T18:08:39.698Z,4.30
2023-05-14T18:11:06.288Z,4.60
2023-05-14T18:13:32.748Z,4.88
2023-05-14T18:16:00.678Z,4.30
2023-05-14T18:18:27.464Z,4.70
2023-05-14T18:20:54.202Z,4.10
2023-05-14T18:23:20.642Z,4.68
2023-05-14T18:25:48.174Z,5.07
2023-05-14T18:28:15.559Z,4.70
2023-05-14T18:30:43.497Z,4.40
2023-05-14T18:33:10.329Z,4.80
2023-05-14T18:35:37.219Z,4.43
2023-05-14T18:38:03.845Z,5.05
2023-05-14T18:40:30.378Z,4.55
2023-05-14T18:42:56.889Z,4.80
2023-05-14T18:45:24.297Z,4.85
2023-05-14T18:47:51.490Z,5.15
2023-05-14T18:50:18.068Z,5.55
2023-05-14T18:52:44.559Z,5.22
2023-05-14T18:55:11.014Z,4.78
2023-05-14T18:57:37.655Z,5.30
2023-05-14T19:00:05.128Z,4.75
2023-05-14T19:02:31.698Z,4.80
2023-05-14T19:04:58.261Z,4.97
2023-05-14T19:07:24.778Z,5.07
2023-05-14T19:09:54.457Z,5.45
2023-05-14T19:12:20.989Z,5.10
2023-05-14T19:14:47.449Z,5.45
2023-05-14T19:17:13.963Z,5.20
2023-05-14T19:19:40.720Z,5.10
2023-05-14T19:22:07.229Z,5.20
2023-05-14T19:24:33.799Z,5.82
2023-05-14T19:27:00.678Z,5.32
2023-05-14T19:29:27.124Z,6.10
2023-05-14T19:31:53.660Z,7.78
2023-05-14T19:34:20.419Z,13.10
2023-05-14T19:36:47.014Z,17.23
2023-05-14T19:39:13.526Z,21.25
2023-05-14T19:41:40.074Z,24.00
2023-05-14T19:44:06.533Z,23.88
2023-05-14T19:46:33.271Z,16.23
2023-05-14T19:48:59.851Z,10.75
2023-05-14T19:51:26.329Z,12.80
2023-05-14T19:53:52.838Z,11.40
2023-05-14T19:56:19.454Z,8.50
2023-05-14T19:58:45.946Z,8.48
2023-05-14T20:01:12.490Z,8.43
2023-05-14T20:03:39.204Z,8.02
2023-05-14T20:06:08.504Z,6.93
2023-05-14T20:08:35.053Z,7.70
2023-05-14T20:11:01.892Z,6.88
2023-05-14T20:13:31.647Z,7.43
2023-05-14T20:15:58.801Z,6.43
2023-05-14T20:18:25.596Z,6.80
2023-05-14T20:20:52.081Z,6.70
2023-05-14T20:23:18.610Z,6.55
2023-05-14T20:25:48.298Z,6.82
2023-05-14T20:28:14.838Z,6.35
2023-05-14T20:30:41.352Z,5.78
2023-05-14T20:33:08.263Z,6.20
2023-05-14T20:35:34.851Z,5.97
2023-05-14T20:38:02.270Z,6.15
2023-05-14T20:40:31.518Z,6.15
2023-05-14T20:42:58.056Z,6.35
2023-05-14T20:45:24.846Z,6.00
2023-05-14T20:47:51.463Z,6.15
2023-05-14T20:50:18.104Z,5.85
2023-05-14T20:52:47.545Z,5.82
2023-05-14T20:55:14.179Z,6.07
2023-05-14T20:57:43.498Z,6.22
2023-05-14T21:00:11.124Z,6.13
2023-05-14T21:02:37.932Z,5.38
2023-05-14T21:05:05.021Z,5.70
2023-05-14T21:07:31.748Z,6.13
2023-05-14T21:10:02.302Z,6.07
2023-05-14T21:12:28.744Z,5.47
2023-05-14T21:14:55.262Z,5.80
2023-05-14T21:17:21.743Z,5.88
2023-05-14T21:19:48.271Z,5.78
2023-05-14T21:22:14.734Z,5.90
2023-05-14T21:24:44.525Z,6.25
2023-05-14T21:27:11.452Z,5.93
2023-05-14T21:29:38.554Z,5.85
2023-05-14T21:32:08.483Z,6.15
2023-05-14T21:34:34.995Z,6.03
2023-05-14T21:37:01.552Z,5.82
2023-05-14T21:39:30.817Z,5.57
2023-05-14T21:41:57.285Z,5.85
2023-05-14T21:44:23.828Z,5.80
2023-05-14T21:46:50.398Z,5.72
2023-05-14T21:49:16.850Z,5.95
2023-05-14T21:51:44.854Z,6.05
2023-05-14T21:54:11.303Z,6.30
2023-05-14T21:56:37.928Z,5.90
2023-05-14T21:59:04.760Z,6.15
2023-05-14T22:01:32.557Z,6.93
2023-05-14T22:04:00.418Z,6.28
2023-05-14T22:06:27.012Z,6.95
2023-05-14T22:08:56.467Z,6.20
2023-05-14T22:11:25.619Z,7.00
2023-05-14T22:13:52.174Z,7.05
2023-05-14T22:16:18.775Z,6.90
2023-05-14T22:18:45.381Z,6.35
2023-05-14T22:21:11.994Z,5.80
2023-05-14T22:23:38.470Z,6.22
2023-05-14T22:26:07.384Z,6.53
2023-05-14T22:28:39.786Z,6.10
2023-05-14T22:31:06.306Z,5.82
2023-05-14T22:33:33.255Z,6.20
2023-05-14T22:35:59.805Z,5.95
2023-05-14T22:38:26.264Z,5.72
2023-05-14T22:40:52.735Z,6.20
2023-05-14T22:43:19.154Z,5.93
2023-05-14T22:45:51.554Z,6.60
2023-05-14T22:48:21.259Z,6.38
2023-05-14T22:50:47.710Z,6.05
2023-05-14T22:53:14.252Z,5.65
2023-05-14T22:55:40.744Z,5.85
2023-05-14T22:58:07.255Z,6.60
2023-05-14T23:00:33.974Z,5.95
2023-05-14T23:03:07.740Z,6.28
2023-05-14T23:05:34.425Z,6.00
2023-05-14T23:08:05.802Z,5.85
2023-05-14T23:10:35.270Z,6.13
2023-05-14T23:13:02.015Z,5.57
2023-05-14T23:15:28.543Z,5.80
2023-05-14T23:17:59.601Z,5.30
2023-05-14T23:20:26.141Z,5.75
2023-05-14T23:22:54.042Z,5.78
2023-05-14T23:25:23.291Z,5.57
2023-05-14T23:27:50.063Z,5.88
2023-05-14T23:30:16.683Z,5.63
2023-05-14T23:32:43.268Z,5.47
2023-05-14T23:35:10.233Z,5.60
2023-05-14T23:37:41.651Z,5.57
2023-05-14T23:40:12.382Z,5.63
2023-05-14T23:42:38.888Z,5.70
2023-05-14T23:45:10.303Z,5.50
2023-05-14T23:47:37.044Z,5.60
2023-05-14T23:50:03.765Z,5.53
2023-05-14T23:52:30.252Z,5.38
2023-05-14T23:54:57.889Z,5.68
2023-05-14T23:57:24.553Z,5.55
